createdAt,value
2018-09-23T00:04:18.570Z,1021.1
2018-09-23T00:09:18.450Z,1020.9
2018-09-23T00:14:18.293Z,1020.9
2018-09-23T00:19:18.436Z,1020.9
2018-09-23T00:24:18.325Z,1021
2018-09-23T00:29:18.311Z,1020.9
2018-09-23T00:34:18.546Z,1020.8
2018-09-23T00:39:30.308Z,1020.8
2018-09-23T00:44:30.170Z,1020.9
2018-09-23T00:49:30.097Z,1020.8
2018-09-23T00:54:30.356Z,1020.9
2018-09-23T00:59:30.085Z,1020.8
2018-09-23T01:04:30.027Z,1020.7
2018-09-23T01:09:30.097Z,1020.6
2018-09-23T01:14:30.688Z,1020.6
2018-09-23T01:19:30.394Z,1020.8
2018-09-23T01:24:32.443Z,1020.9
2018-09-23T01:29:32.317Z,1020.8
2018-09-23T01:34:32.362Z,1020.8
2018-09-23T01:39:32.187Z,1020.9
2018-09-23T01:44:32.323Z,1021
2018-09-23T01:49:32.371Z,1021
2018-09-23T01:54:32.206Z,1021
2018-09-23T01:59:32.445Z,1021
2018-09-23T02:04:32.553Z,1021
2018-09-23T02:09:44.439Z,1021.1
2018-09-23T02:14:44.310Z,1021.1
2018-09-23T02:19:44.356Z,1021
2018-09-23T02:24:44.383Z,1021
2018-09-23T02:29:44.428Z,1021.1
2018-09-23T02:34:44.321Z,1021
2018-09-23T02:39:44.387Z,1021.2
2018-09-23T02:44:44.845Z,1021.2
2018-09-23T02:49:44.765Z,1021.1
2018-09-23T02:54:57.148Z,1021.1
2018-09-23T02:59:56.914Z,1021
2018-09-23T03:04:56.856Z,1020.9
2018-09-23T03:09:56.830Z,1020.9
2018-09-23T03:14:56.829Z,1020.8
2018-09-23T03:19:56.948Z,1020.9
2018-09-23T03:24:56.847Z,1020.9
2018-09-23T03:29:56.725Z,1020.8
2018-09-23T03:34:56.838Z,1020.8
2018-09-23T03:40:09.047Z,1020.8
2018-09-23T03:45:09.006Z,1020.8
2018-09-23T03:50:08.924Z,1020.9
2018-09-23T03:55:08.954Z,1020.8
2018-09-23T04:00:08.985Z,1020.7
2018-09-23T04:05:08.796Z,1020.6
2018-09-23T04:10:08.957Z,1020.7
2018-09-23T04:15:08.818Z,1020.7
2018-09-23T04:20:09.011Z,1020.6
2018-09-23T04:25:08.964Z,1020.6
2018-09-23T04:30:08.994Z,1020.6
2018-09-23T04:35:09.070Z,1020.4
2018-09-23T04:40:12.261Z,1020.4
2018-09-23T04:45:12.177Z,1020.3
2018-09-23T04:50:21.716Z,1020.3
2018-09-23T04:55:21.912Z,1020.3
2018-09-23T05:00:21.471Z,1020.2
2018-09-23T05:05:21.609Z,1020.2
2018-09-23T05:10:21.461Z,1020.1
2018-09-23T05:15:21.588Z,1020.1
2018-09-23T05:20:21.610Z,1020
2018-09-23T05:25:21.622Z,1020
2018-09-23T05:30:21.781Z,1019.9
2018-09-23T05:35:39.122Z,1019.7
2018-09-23T05:40:39.060Z,1019.6
2018-09-23T05:45:41.363Z,1019.7
2018-09-23T05:50:41.099Z,1019.6
2018-09-23T05:55:53.864Z,1019.6
2018-09-23T06:00:53.599Z,1019.6
2018-09-23T06:05:53.798Z,1019.5
2018-09-23T06:10:53.822Z,1019.2
2018-09-23T06:15:53.724Z,1019.2
2018-09-23T06:20:53.616Z,1019.2
2018-09-23T06:25:53.845Z,1019.2
2018-09-23T06:30:54.409Z,1019.2
2018-09-23T06:35:54.105Z,1019.1
2018-09-23T06:41:06.901Z,1019.1
2018-09-23T06:46:06.859Z,1019.1
2018-09-23T06:51:06.924Z,1018.9
2018-09-23T06:56:06.841Z,1018.9
2018-09-23T07:01:06.628Z,1018.8
2018-09-23T07:06:06.658Z,1018.9
2018-09-23T07:11:06.927Z,1018.9
2018-09-23T07:16:06.862Z,1018.9
2018-09-23T07:21:06.906Z,1019
2018-09-23T07:26:06.937Z,1018.9
2018-09-23T07:31:06.836Z,1018.8
2018-09-23T07:36:06.892Z,1018.7
2018-09-23T07:41:08.612Z,1018.5
2018-09-23T07:46:08.506Z,1018.5
2018-09-23T07:51:20.938Z,1018.4
2018-09-23T07:56:21.118Z,1018.4
2018-09-23T08:01:20.891Z,1018.4
2018-09-23T08:06:20.801Z,1018.3
2018-09-23T08:11:20.670Z,1018.3
2018-09-23T08:16:20.658Z,1018.2
2018-09-23T08:21:21.381Z,1018.2
2018-09-23T08:26:21.405Z,1018.2
2018-09-23T08:31:21.199Z,1018.1
2018-09-23T08:36:33.786Z,1018
2018-09-23T08:41:33.670Z,1018
2018-09-23T08:46:33.660Z,1017.9
2018-09-23T08:51:33.633Z,1017.9
2018-09-23T08:56:33.611Z,1017.9
2018-09-23T09:01:33.584Z,1017.8
2018-09-23T09:06:33.825Z,1017.8
2018-09-23T09:11:43.312Z,1017.7
2018-09-23T09:16:42.841Z,1017.6
2018-09-23T09:21:51.985Z,1017.6
2018-09-23T09:26:51.807Z,1017.6
2018-09-23T09:31:51.730Z,1017.4
2018-09-23T09:36:51.748Z,1017.4
2018-09-23T09:41:51.740Z,1017.3
2018-09-23T09:46:51.750Z,1017.2
2018-09-23T09:51:52.005Z,1017.1
2018-09-23T09:56:51.845Z,1017.2
2018-09-23T10:01:51.797Z,1017.1
2018-09-23T10:07:04.175Z,1017
2018-09-23T10:12:03.925Z,1016.9
2018-09-23T10:17:03.901Z,1016.8
2018-09-23T10:22:03.903Z,1016.7
2018-09-23T10:27:04.160Z,1016.4
2018-09-23T10:32:04.458Z,1016.2
2018-09-23T10:37:04.173Z,1016.2
2018-09-23T10:42:05.605Z,1016.1
2018-09-23T10:47:05.292Z,1016.1
2018-09-23T10:52:17.409Z,1015.9
2018-09-23T10:57:17.200Z,1015.9
2018-09-23T11:02:17.341Z,1015.7
2018-09-23T11:07:17.379Z,1015.9
2018-09-23T11:12:17.258Z,1015.6
2018-09-23T11:17:17.322Z,1015.6
2018-09-23T11:22:17.141Z,1015.4
2018-09-23T11:27:17.938Z,1015.4
2018-09-23T11:32:20.400Z,1015.4
2018-09-23T11:37:30.366Z,1015.1
2018-09-23T11:42:30.188Z,1015
2018-09-23T11:47:36.559Z,1014.8
2018-09-23T11:52:30.130Z,1014.7
2018-09-23T11:57:30.050Z,1014.5
2018-09-23T12:02:30.127Z,1014.4
2018-09-23T12:07:30.098Z,1014.2
2018-09-23T12:12:30.116Z,1014.1
2018-09-23T12:17:30.118Z,1013.9
2018-09-23T12:22:30.402Z,1013.8
2018-09-23T12:27:31.832Z,1013.7
2018-09-23T12:32:31.810Z,1013.5
2018-09-23T12:37:30.204Z,1013.4
2018-09-23T12:42:30.638Z,1013.3
2018-09-23T12:47:30.844Z,1013.3
2018-09-23T12:52:30.464Z,1013.1
2018-09-23T12:57:30.621Z,1012.9
2018-09-23T13:02:32.003Z,1012.8
2018-09-23T13:07:30.649Z,1012.7
2018-09-23T13:12:30.327Z,1012.6
2018-09-23T13:17:30.641Z,1012.4
2018-09-23T13:22:30.625Z,1012.2
2018-09-23T13:27:33.010Z,1012
2018-09-23T13:32:36.045Z,1011.9
2018-09-23T13:37:47.066Z,1011.7
2018-09-23T13:42:46.176Z,1011.5
2018-09-23T13:47:46.277Z,1011.2
2018-09-23T13:52:46.578Z,1011.2
2018-09-23T13:57:45.972Z,1010.9
2018-09-23T14:02:46.076Z,1010.8
2018-09-23T14:07:45.949Z,1010.6
2018-09-23T14:12:46.432Z,1010.2
2018-09-23T14:17:46.807Z,1010.1
2018-09-23T14:23:00.649Z,1010.1
2018-09-23T14:28:00.374Z,1010
2018-09-23T14:33:00.617Z,1009.8
2018-09-23T14:38:00.393Z,1009.7
2018-09-23T14:43:00.492Z,1009.4
2018-09-23T14:48:00.418Z,1009.3
2018-09-23T14:53:00.640Z,1009.3
2018-09-23T14:58:00.419Z,1009
2018-09-23T15:03:00.569Z,1008.9
2018-09-23T15:08:00.501Z,1008.7
2018-09-23T15:13:00.618Z,1008.6
2018-09-23T15:18:00.405Z,1008.5
2018-09-23T15:23:02.964Z,1008.3
2018-09-23T15:28:02.860Z,1008.1
2018-09-23T15:33:18.375Z,1007.8
2018-09-23T15:38:15.352Z,1007.8
2018-09-23T15:43:15.250Z,1007.6
2018-09-23T15:48:15.358Z,1007.4
2018-09-23T15:53:15.325Z,1007.3
2018-09-23T15:58:18.391Z,1007.2
2018-09-23T16:03:15.304Z,1007
2018-09-23T16:08:15.953Z,1006.8
2018-09-23T16:13:17.350Z,1006.7
2018-09-23T16:18:32.520Z,1006.6
2018-09-23T16:23:31.412Z,1006.3
2018-09-23T16:28:31.362Z,1006
2018-09-23T16:33:32.482Z,1005.9
2018-09-23T16:38:31.609Z,1006.2
2018-09-23T16:43:34.196Z,1006.2
2018-09-23T16:48:32.957Z,1006
2018-09-23T16:53:32.951Z,1005.9
2018-09-23T16:58:32.987Z,1005.7
2018-09-23T17:03:32.897Z,1005.7
2018-09-23T17:08:32.969Z,1005.8
2018-09-23T17:13:32.901Z,1005.9
2018-09-23T17:18:34.740Z,1006
2018-09-23T17:23:34.731Z,1005.8
2018-09-23T17:28:47.373Z,1005.6
2018-09-23T17:33:47.068Z,1005.6
2018-09-23T17:38:47.082Z,1005.8
2018-09-23T17:43:47.240Z,1005.8
2018-09-23T17:48:47.755Z,1005.8
2018-09-23T17:53:47.162Z,1005.7
2018-09-23T17:58:47.104Z,1005.4
2018-09-23T18:03:51.464Z,1005.4
2018-09-23T18:08:53.100Z,1005.7
2018-09-23T18:14:03.085Z,1005.8
2018-09-23T18:19:03.022Z,1005.9
2018-09-23T18:24:02.944Z,1005.9
2018-09-23T18:29:02.933Z,1006.1
2018-09-23T18:34:03.041Z,1006.1
2018-09-23T18:39:04.375Z,1006.1
2018-09-23T18:44:02.993Z,1006.1
2018-09-23T18:49:03.656Z,1005.9
2018-09-23T18:54:02.971Z,1006
2018-09-23T18:59:05.243Z,1005.8
2018-09-23T19:04:06.082Z,1005.7
2018-09-23T19:09:02.923Z,1005.6
2018-09-23T19:14:04.810Z,1005.5
2018-09-23T19:19:04.474Z,1005.5
2018-09-23T19:24:16.717Z,1005.5
2018-09-23T19:29:16.622Z,1005.3
2018-09-23T19:34:16.530Z,1005.4
2018-09-23T19:39:16.374Z,1005.4
2018-09-23T19:44:16.608Z,1005.4
2018-09-23T19:49:17.729Z,1005.5
2018-09-23T19:54:17.512Z,1005.5
2018-09-23T19:59:17.542Z,1007.1
2018-09-23T20:04:17.768Z,1008.1
2018-09-23T20:09:31.737Z,1008.5
2018-09-23T20:14:31.675Z,1008.8
2018-09-23T20:19:31.552Z,1009.3
2018-09-23T20:24:31.876Z,1009.8
2018-09-23T20:29:31.662Z,1010.1
2018-09-23T20:34:31.484Z,1009.9
2018-09-23T20:39:31.462Z,1010.5
2018-09-23T20:44:31.655Z,1010.7
2018-09-23T20:49:31.671Z,1011.3
2018-09-23T20:54:31.617Z,1011.9
2018-09-23T20:59:31.634Z,1011.8
2018-09-23T21:04:31.459Z,1011.9
2018-09-23T21:09:31.835Z,1012.8
2018-09-23T21:14:31.642Z,1012.7
2018-09-23T21:19:44.276Z,1013
2018-09-23T21:24:44.010Z,1013.2
2018-09-23T21:29:44.377Z,1013.5
2018-09-23T21:34:44.006Z,1013.6
2018-09-23T21:39:44.287Z,1013.6
2018-09-23T21:44:44.270Z,1013.6
2018-09-23T21:49:44.485Z,1013.5
2018-09-23T21:54:44.703Z,1013.5
2018-09-23T21:59:44.441Z,1013.6
2018-09-23T22:04:57.096Z,1013.4
2018-09-23T22:09:56.989Z,1013.2
2018-09-23T22:14:57.021Z,1013.1
2018-09-23T22:19:57.071Z,1013.3
2018-09-23T22:24:56.858Z,1013.1
2018-09-23T22:29:56.851Z,1013.3
2018-09-23T22:34:56.947Z,1013.6
2018-09-23T22:39:56.988Z,1013.7
2018-09-23T22:44:57.034Z,1013.7
2018-09-23T22:49:56.845Z,1013.5
2018-09-23T22:54:56.985Z,1014.1
2018-09-23T22:59:56.845Z,1014.4
2018-09-23T23:04:57.093Z,1014.5
2018-09-23T23:09:57.311Z,1014.5
2018-09-23T23:15:09.509Z,1014.7
2018-09-23T23:20:09.452Z,1015
2018-09-23T23:25:09.365Z,1015
2018-09-23T23:30:09.243Z,1015.1
2018-09-23T23:35:09.447Z,1015.5
2018-09-23T23:40:09.241Z,1015.5
2018-09-23T23:45:09.394Z,1016.1
2018-09-23T23:50:09.493Z,1016.3
2018-09-23T23:55:09.646Z,1016.4
